Time;durP1;ratioP1;P1;durP2;ratioP2;P2;SDS_P1;SDS_P2;PMS_P1;PMS_P2;Temp;Humidity;BMP_temperature;BMP_pressure;BME280_temperature;BME280_humidity;BME280_pressure;Samples;Min_cycle;Max_cycle;Signal;HPM_P1;HPM_P2
2022/04/16 00:00:08;;;;;;;3.75;1.83;;;20.40;99.90;;;;;;5074923;28;20191;-75
2022/04/16 00:02:40;;;;;;;7.10;2.38;;;20.40;99.90;;;;;;5072717;28;20740;-71
2022/04/16 00:05:11;;;;;;;3.72;2.20;;;20.40;99.90;;;;;;5073161;28;20258;-71
2022/04/16 00:07:42;;;;;;;5.80;2.10;;;20.40;99.90;;;;;;5074229;28;20189;-70
2022/04/16 00:10:13;;;;;;;3.72;2.00;;;20.40;99.90;;;;;;5073166;28;20193;-70
2022/04/16 00:12:44;;;;;;;3.03;1.80;;;20.50;99.90;;;;;;5074022;28;20213;-70
2022/04/16 00:15:16;;;;;;;4.45;1.90;;;20.50;99.90;;;;;;5074757;28;20193;-75
2022/04/16 00:17:48;;;;;;;5.25;1.95;;;20.60;99.90;;;;;;5072341;28;20246;-80
2022/04/16 00:20:19;;;;;;;6.40;1.50;;;20.60;99.90;;;;;;5074049;28;20185;-76
2022/04/16 00:22:50;;;;;;;3.95;1.90;;;20.70;99.90;;;;;;5073008;28;20200;-80
2022/04/16 00:25:21;;;;;;;3.95;1.90;;;20.80;99.90;;;;;;5072468;28;20204;-77
2022/04/16 00:27:52;;;;;;;3.20;1.85;;;20.80;99.90;;;;;;5072997;28;20262;-83
2022/04/16 00:30:23;;;;;;;5.57;2.00;;;20.90;99.90;;;;;;5073133;28;20197;-84
2022/04/16 00:32:57;;;;;;;5.10;1.88;;;21.10;99.90;;;;;;5069759;28;20212;-78
2022/04/16 00:35:29;;;;;;;3.30;1.80;;;21.10;99.90;;;;;;5071910;28;20197;-77
2022/04/16 00:37:59;;;;;;;2.50;1.63;;;21.20;99.90;;;;;;5072401;28;20278;-75
2022/04/16 00:40:30;;;;;;;3.15;1.60;;;21.30;99.90;;;;;;5073484;28;20254;-71
2022/04/16 00:43:00;;;;;;;5.60;1.60;;;21.50;99.90;;;;;;5074055;28;20784;-71
2022/04/16 00:45:31;;;;;;;2.67;1.58;;;21.60;99.90;;;;;;5073691;28;20574;-71
2022/04/16 00:48:05;;;;;;;2.80;1.60;;;21.70;99.90;;;;;;5070739;28;20300;-71
2022/04/16 00:50:35;;;;;;;2.97;1.80;;;21.80;99.90;;;;;;5074300;28;20193;-70
2022/04/16 00:53:06;;;;;;;1.90;1.17;;;21.80;99.90;;;;;;5074422;28;20287;-70
2022/04/16 00:55:40;;;;;;;4.57;1.40;;;21.70;99.90;;;;;;5074415;28;20212;-71
2022/04/16 00:58:11;;;;;;;3.08;1.40;;;21.70;99.90;;;;;;5073575;28;20197;-71
2022/04/16 01:00:42;;;;;;;3.97;1.50;;;21.80;99.90;;;;;;5073764;28;20193;-70
2022/04/16 01:03:17;;;;;;;2.97;1.10;;;21.90;99.90;;;;;;5073620;28;20208;-71
2022/04/16 01:05:48;;;;;;;3.15;1.50;;;22.00;99.90;;;;;;5066509;28;20189;-70
2022/04/16 01:08:22;;;;;;;3.47;1.50;;;22.20;99.90;;;;;;5073792;28;20196;-71
2022/04/16 01:10:53;;;;;;;3.10;1.40;;;22.10;99.90;;;;;;5066866;28;20552;-70
2022/04/16 01:13:23;;;;;;;2.80;1.30;;;22.20;99.90;;;;;;5073657;28;20217;-71
2022/04/16 01:15:54;;;;;;;3.38;1.40;;;22.30;99.90;;;;;;5065888;28;20239;-74
2022/04/16 01:18:26;;;;;;;2.50;0.90;;;22.40;99.90;;;;;;5074002;28;20196;-70
2022/04/16 01:20:57;;;;;;;3.83;0.90;;;22.50;99.90;;;;;;5070123;28;20181;-71
2022/04/16 01:23:30;;;;;;;1.88;1.00;;;22.60;99.90;;;;;;5068573;28;20193;-71
2022/04/16 01:26:01;;;;;;;2.15;1.27;;;22.80;99.90;;;;;;5070316;28;20185;-70
2022/04/16 01:28:32;;;;;;;1.83;1.13;;;22.90;99.90;;;;;;5070122;28;20228;-70
2022/04/16 01:31:02;;;;;;;3.90;1.05;;;23.00;99.90;;;;;;5069801;28;20246;-69
2022/04/16 01:33:33;;;;;;;2.67;0.90;;;23.20;99.90;;;;;;5073594;28;20213;-69
2022/04/16 01:36:05;;;;;;;4.45;1.00;;;23.30;99.90;;;;;;5073063;28;20702;-70
2022/04/16 01:38:37;;;;;;;2.88;0.90;;;23.40;99.90;;;;;;5070470;28;20272;-70
2022/04/16 01:41:08;;;;;;;3.63;0.73;;;23.50;99.90;;;;;;5070911;28;20254;-70
2022/04/16 01:43:38;;;;;;;1.70;0.80;;;23.60;99.90;;;;;;5072739;28;20251;-70
2022/04/16 01:46:09;;;;;;;2.25;0.90;;;23.70;99.90;;;;;;5073045;28;20189;-70
2022/04/16 01:48:39;;;;;;;3.65;0.93;;;23.70;99.90;;;;;;5066156;28;20189;-73
2022/04/16 01:51:10;;;;;;;2.58;1.08;;;23.70;99.90;;;;;;5068509;28;20739;-70
2022/04/16 01:53:42;;;;;;;2.20;0.93;;;23.80;99.90;;;;;;5069664;28;20239;-69
2022/04/16 01:56:13;;;;;;;14.05;7.10;;;23.90;99.90;;;;;;5069497;28;20200;-72
2022/04/16 01:58:44;;;;;;;7.68;4.75;;;24.00;99.90;;;;;;5064006;28;20272;-73
2022/04/16 02:01:14;;;;;;;2.40;1.58;;;24.10;99.90;;;;;;5070890;28;20197;-70
2022/04/16 02:03:47;;;;;;;3.45;1.55;;;24.30;99.90;;;;;;5068161;28;20232;-77
2022/04/16 02:06:18;;;;;;;0.82;0.70;;;24.40;99.90;;;;;;5067801;28;20279;-71
2022/04/16 02:08:51;;;;;;;1.30;0.80;;;24.50;99.90;;;;;;5068994;28;20872;-72
2022/04/16 02:11:25;;;;;;;2.03;0.98;;;24.50;99.90;;;;;;5068347;28;20197;-72
2022/04/16 02:13:55;;;;;;;2.85;1.10;;;24.60;99.90;;;;;;5068549;28;20213;-71
2022/04/16 02:16:26;;;;;;;1.42;0.98;;;24.60;99.90;;;;;;5064429;28;20197;-71
2022/04/16 02:18:57;;;;;;;2.28;0.70;;;24.70;99.90;;;;;;5067157;28;20200;-70
2022/04/16 02:21:28;;;;;;;2.30;0.80;;;24.80;99.90;;;;;;5066104;28;20204;-70
2022/04/16 02:24:00;;;;;;;1.45;0.85;;;24.80;99.90;;;;;;5068808;28;20193;-70
2022/04/16 02:26:31;;;;;;;3.58;1.20;;;24.80;99.90;;;;;;5065810;28;20239;-70
2022/04/16 02:29:01;;;;;;;1.42;0.98;;;24.70;99.90;;;;;;5068189;28;20193;-70
2022/04/16 02:31:32;;;;;;;1.42;0.98;;;24.30;99.90;;;;;;5068570;28;20724;-70
2022/04/16 02:34:07;;;;;;;2.25;1.08;;;24.00;99.90;;;;;;5067915;28;20274;-70
2022/04/16 02:36:37;;;;;;;3.13;1.30;;;23.70;99.90;;;;;;5066494;28;20192;-70
2022/04/16 02:39:10;;;;;;;2.28;1.17;;;23.50;99.90;;;;;;5067063;28;20283;-70
2022/04/16 02:41:41;;;;;;;3.95;1.20;;;23.30;99.90;;;;;;5064526;28;20265;-71
2022/04/16 02:47:05;;;;;;;6.35;1.40;;;23.10;99.90;;;;;;5066148;28;20262;-69
2022/04/16 02:47:08;;;;;;;4.35;1.40;;;23.00;99.90;;;;;;5068737;28;20213;-70
2022/04/16 02:49:40;;;;;;;3.67;1.27;;;22.90;99.90;;;;;;5068712;28;20188;-70
2022/04/16 02:52:11;;;;;;;3.90;1.60;;;22.80;99.90;;;;;;5071450;28;20725;-70
2022/04/16 02:54:43;;;;;;;4.63;1.50;;;22.80;99.90;;;;;;5071807;28;20293;-70
2022/04/16 02:57:14;;;;;;;4.10;1.55;;;22.70;99.90;;;;;;5067986;28;20254;-69
2022/04/16 02:59:46;;;;;;;2.60;1.60;;;22.70;99.90;;;;;;5063513;28;20201;-70
2022/04/16 03:02:18;;;;;;;3.50;1.60;;;22.70;99.90;;;;;;5068930;28;20648;-70
2022/04/16 03:04:49;;;;;;;4.25;1.20;;;22.70;99.90;;;;;;5068871;28;20699;-70
2022/04/16 03:07:20;;;;;;;8.68;1.67;;;22.70;99.90;;;;;;5070344;28;20239;-70
2022/04/16 03:09:53;;;;;;;4.13;1.58;;;22.80;99.90;;;;;;5065640;28;20192;-70
2022/04/16 03:12:23;;;;;;;7.28;1.65;;;22.80;99.90;;;;;;5071559;28;20196;-70
2022/04/16 03:17:40;;;;;;;4.93;2.00;;;22.70;99.90;;;;;;5068497;28;20268;-70
2022/04/16 03:20:12;;;;;;;2.45;1.67;;;22.70;99.90;;;;;;5068412;28;20198;-70
2022/04/16 03:22:46;;;;;;;4.40;1.50;;;22.60;99.90;;;;;;5067382;28;20193;-70
2022/04/16 03:25:19;;;;;;;3.58;1.73;;;22.60;99.90;;;;;;5072000;28;20188;-69
2022/04/16 03:27:50;;;;;;;5.80;1.65;;;22.70;99.90;;;;;;5073583;28;20201;-70
2022/04/16 03:30:20;;;;;;;3.42;1.48;;;22.70;99.90;;;;;;5069726;28;20189;-70
2022/04/16 03:32:51;;;;;;;5.38;1.80;;;22.70;99.90;;;;;;5076172;28;20258;-70
2022/04/16 03:35:23;;;;;;;3.40;1.60;;;22.80;99.90;;;;;;5069009;28;20250;-70
2022/04/16 03:37:54;;;;;;;3.92;1.40;;;22.90;99.90;;;;;;5070982;28;20196;-70
2022/04/16 03:40:27;;;;;;;4.82;1.60;;;23.00;99.90;;;;;;5069584;28;20202;-70
2022/04/16 03:42:59;;;;;;;2.83;1.67;;;23.20;99.90;;;;;;5071141;28;20568;-71
2022/04/16 03:45:32;;;;;;;4.57;1.50;;;23.20;99.90;;;;;;5069641;28;20204;-69
2022/04/16 03:48:04;;;;;;;5.38;1.42;;;23.40;99.90;;;;;;5066430;28;20262;-70
2022/04/16 03:50:36;;;;;;;3.33;1.25;;;23.50;99.90;;;;;;5068926;28;20248;-70
2022/04/16 03:53:07;;;;;;;3.13;1.40;;;23.60;99.90;;;;;;5071848;28;20233;-70
2022/04/16 04:01:12;;;;;;;4.40;1.77;;;23.80;99.90;;;;;;5064227;28;20208;-69
2022/04/16 04:03:46;;;;;;;7.20;1.70;;;23.90;99.90;;;;;;5065623;28;20204;-70
2022/04/16 04:06:17;;;;;;;4.35;1.77;;;24.00;99.90;;;;;;5068520;28;20284;-70
2022/04/16 04:08:47;;;;;;;4.30;2.08;;;23.70;99.90;;;;;;5065660;28;20259;-70
2022/04/16 04:11:20;;;;;;;4.63;1.63;;;23.50;99.90;;;;;;5066455;28;20204;-70
2022/04/16 04:13:51;;;;;;;6.50;1.70;;;23.30;99.90;;;;;;5070235;28;20219;-70
2022/04/16 04:16:22;;;;;;;5.22;2.15;;;23.20;99.90;;;;;;5067151;28;20235;-70
2022/04/16 04:18:54;;;;;;;5.97;1.75;;;23.00;99.90;;;;;;5072272;28;20197;-71
2022/04/16 04:21:24;;;;;;;5.30;1.90;;;22.90;99.90;;;;;;5070304;28;20612;-70
2022/04/16 04:23:55;;;;;;;6.07;1.90;;;22.80;99.90;;;;;;5069718;28;20181;-70
2022/04/16 04:26:27;;;;;;;3.88;1.65;;;22.70;99.90;;;;;;5068303;28;20243;-69
2022/04/16 04:28:58;;;;;;;6.90;1.85;;;22.70;99.90;;;;;;5072189;28;20197;-69
2022/04/16 04:31:29;;;;;;;3.92;1.70;;;22.60;99.90;;;;;;5070147;28;20197;-70
2022/04/16 04:33:59;;;;;;;6.82;1.80;;;22.60;99.90;;;;;;5068795;28;20304;-70
2022/04/16 04:36:30;;;;;;;4.80;1.73;;;22.60;99.90;;;;;;5072173;28;20197;-70
2022/04/16 04:39:00;;;;;;;5.30;2.00;;;22.50;99.90;;;;;;5069980;28;20641;-70
2022/04/16 04:41:33;;;;;;;4.28;1.73;;;22.50;99.90;;;;;;5070449;28;20630;-70
2022/04/16 04:44:03;;;;;;;4.07;1.70;;;22.40;99.90;;;;;;5068060;28;20584;-69
2022/04/16 04:46:39;;;;;;;4.25;1.50;;;22.40;99.90;;;;;;5070525;28;20278;-70
2022/04/16 04:49:11;;;;;;;5.45;1.50;;;22.40;99.90;;;;;;5067460;28;20246;-69
2022/04/16 04:51:42;;;;;;;6.53;2.70;;;22.30;99.90;;;;;;5070041;28;20270;-69
2022/04/16 04:54:12;;;;;;;5.38;1.80;;;22.30;99.90;;;;;;5071536;28;20255;-69
2022/04/16 04:56:45;;;;;;;5.82;1.58;;;22.30;99.90;;;;;;5071394;28;20655;-69
2022/04/16 04:59:15;;;;;;;7.68;2.10;;;22.40;99.90;;;;;;5072283;28;20273;-70
2022/04/16 05:01:46;;;;;;;5.55;1.80;;;22.30;99.90;;;;;;5069427;28;20528;-70
2022/04/16 05:04:17;;;;;;;3.15;1.63;;;22.40;99.90;;;;;;5072511;28;20185;-70
2022/04/16 05:06:50;;;;;;;6.28;2.30;;;22.50;99.90;;;;;;5070814;28;20193;-71
2022/04/16 05:09:21;;;;;;;4.40;1.60;;;22.40;99.90;;;;;;5069834;28;20197;-70
2022/04/16 05:11:53;;;;;;;5.32;1.42;;;22.40;99.90;;;;;;5070375;28;20212;-69
2022/04/16 05:14:24;;;;;;;5.93;1.50;;;22.40;99.90;;;;;;5069725;28;20221;-68
2022/04/16 05:16:54;;;;;;;3.85;1.48;;;22.30;99.90;;;;;;5069821;28;20197;-71
2022/04/16 05:19:25;;;;;;;5.05;1.70;;;22.20;99.90;;;;;;5070463;28;20181;-69
2022/04/16 05:21:55;;;;;;;5.32;1.60;;;22.20;99.90;;;;;;5070873;28;20196;-69
2022/04/16 05:24:26;;;;;;;4.25;1.40;;;22.20;99.90;;;;;;5070428;28;20611;-69
2022/04/16 05:26:59;;;;;;;3.72;1.50;;;22.10;99.90;;;;;;5071506;28;20193;-69
2022/04/16 05:29:48;;;;;;;4.75;1.65;;;22.10;99.90;;;;;;5071977;28;20197;-70
2022/04/16 05:32:19;;;;;;;6.85;1.63;;;22.00;99.90;;;;;;5066382;28;20262;-70
2022/04/16 05:34:49;;;;;;;4.38;1.33;;;21.90;99.90;;;;;;5065223;28;20224;-69
2022/04/16 05:37:20;;;;;;;3.78;1.60;;;22.00;99.90;;;;;;5068035;28;20250;-78
2022/04/16 05:39:51;;;;;;;2.63;1.40;;;22.00;99.90;;;;;;5067511;28;20202;-75
2022/04/16 05:42:23;;;;;;;3.13;1.58;;;22.10;99.90;;;;;;5070542;28;20205;-74
2022/04/16 05:44:54;;;;;;;5.38;1.60;;;22.20;99.90;;;;;;5064050;28;20714;-70
2022/04/16 05:47:24;;;;;;;3.72;1.30;;;22.10;99.90;;;;;;5064470;28;20309;-71
2022/04/16 05:49:55;;;;;;;2.70;1.30;;;22.10;99.90;;;;;;5066497;28;20675;-78
2022/04/16 05:52:26;;;;;;;6.47;1.38;;;22.10;99.90;;;;;;5062774;28;20259;-76
2022/04/16 05:54:57;;;;;;;3.80;1.77;;;22.00;99.90;;;;;;5059794;28;20590;-76
2022/04/16 05:57:31;;;;;;;4.78;1.67;;;22.00;99.90;;;;;;5070708;28;20184;-79
2022/04/16 06:00:01;;;;;;;3.83;1.27;;;22.00;99.90;;;;;;5065885;28;20181;-77
2022/04/16 06:02:33;;;;;;;3.28;1.67;;;22.00;99.90;;;;;;5068341;28;20668;-84
2022/04/16 06:05:04;;;;;;;4.43;1.35;;;22.00;99.90;;;;;;5068230;28;20200;-80
2022/04/16 06:07:34;;;;;;;4.50;1.40;;;22.00;99.90;;;;;;5066510;28;20672;-76
2022/04/16 06:10:05;;;;;;;2.53;1.30;;;22.10;99.90;;;;;;5065363;28;20602;-81
2022/04/16 06:12:37;;;;;;;2.45;1.13;;;22.10;99.90;;;;;;5068025;28;20246;-83
2022/04/16 06:15:08;;;;;;;6.68;1.42;;;22.10;99.90;;;;;;5066540;28;20262;-77
2022/04/16 06:17:39;;;;;;;2.72;1.30;;;22.10;99.90;;;;;;5066340;28;20262;-69
2022/04/16 06:20:10;;;;;;;5.78;1.77;;;22.10;99.90;;;;;;5064933;28;20234;-69
2022/04/16 06:22:41;;;;;;;4.70;1.50;;;22.00;99.90;;;;;;5067987;28;20193;-69
2022/04/16 06:25:12;;;;;;;4.97;1.38;;;22.00;99.90;;;;;;5064810;28;20196;-69
2022/04/16 06:27:45;;;;;;;2.85;1.20;;;22.10;99.90;;;;;;5065971;28;20215;-71
2022/04/16 06:30:16;;;;;;;3.25;1.38;;;22.10;99.90;;;;;;5067001;28;20204;-69
2022/04/16 06:32:46;;;;;;;3.42;1.15;;;22.00;99.90;;;;;;5063787;28;20184;-69
2022/04/16 06:35:17;;;;;;;2.10;1.08;;;21.90;99.90;;;;;;5072133;28;20221;-69
2022/04/16 06:37:47;;;;;;;4.38;1.17;;;21.90;99.90;;;;;;5071950;28;21875;-69
2022/04/16 06:40:18;;;;;;;3.22;1.30;;;21.90;99.90;;;;;;5071692;28;20282;-70
2022/04/16 06:42:52;;;;;;;2.65;1.10;;;21.90;99.90;;;;;;5069108;28;20193;-69
2022/04/16 06:45:22;;;;;;;2.30;1.20;;;21.80;99.90;;;;;;5070241;28;20205;-69
2022/04/16 06:47:53;;;;;;;4.70;1.20;;;21.80;99.90;;;;;;5070009;28;20580;-69
2022/04/16 06:50:24;;;;;;;4.28;1.35;;;21.80;99.90;;;;;;5070598;28;20197;-69
2022/04/16 06:52:58;;;;;;;3.28;1.27;;;21.70;99.90;;;;;;5072262;28;20278;-69
2022/04/16 06:55:29;;;;;;;5.28;1.70;;;21.70;99.90;;;;;;5072333;28;20212;-68
2022/04/16 06:58:01;;;;;;;4.30;1.80;;;21.60;99.90;;;;;;5071361;28;20189;-69
2022/04/16 07:00:32;;;;;;;3.00;1.42;;;21.60;99.90;;;;;;5069379;28;20227;-69
2022/04/16 07:03:03;;;;;;;5.18;1.60;;;21.50;99.90;;;;;;5069285;28;20220;-69
2022/04/16 07:05:34;;;;;;;2.15;1.23;;;21.50;99.90;;;;;;5068651;28;20197;-69
2022/04/16 07:08:05;;;;;;;5.93;1.17;;;21.40;99.90;;;;;;5071002;28;20246;-70
2022/04/16 07:10:35;;;;;;;2.50;1.50;;;21.40;99.90;;;;;;5070137;28;20262;-69
2022/04/16 07:13:08;;;;;;;5.45;1.50;;;21.30;99.90;;;;;;5072294;28;20181;-70
2022/04/16 07:15:39;;;;;;;2.00;1.30;;;21.30;99.90;;;;;;5070222;28;20216;-69
2022/04/16 07:18:09;;;;;;;3.75;1.60;;;21.20;99.90;;;;;;5069963;28;20197;-69
2022/04/16 07:20:40;;;;;;;5.30;1.50;;;21.10;99.90;;;;;;5070305;28;20266;-69
2022/04/16 07:23:11;;;;;;;3.22;1.48;;;21.10;99.90;;;;;;5066357;28;20652;-76
2022/04/16 07:25:42;;;;;;;6.95;1.70;;;21.00;99.90;;;;;;5070276;28;20276;-69
2022/04/16 07:28:21;;;;;;;2.75;1.30;;;20.90;99.90;;;;;;5070857;28;20201;-69
2022/04/16 07:30:52;;;;;;;4.50;1.50;;;20.90;99.90;;;;;;5071013;28;20602;-76
2022/04/16 07:33:23;;;;;;;3.17;1.70;;;20.80;99.90;;;;;;5067913;28;20261;-69
2022/04/16 07:35:53;;;;;;;4.00;1.70;;;20.70;99.90;;;;;;5069694;28;20217;-69
2022/04/16 07:38:24;;;;;;;4.63;1.70;;;20.70;99.90;;;;;;5069210;28;20201;-69
2022/04/16 07:40:54;;;;;;;3.80;1.83;;;20.60;99.90;;;;;;5071908;28;20541;-69
2022/04/16 07:43:27;;;;;;;3.35;1.80;;;20.50;99.90;;;;;;5070551;28;20201;-69
2022/04/16 07:45:58;;;;;;;2.30;1.80;;;20.50;99.90;;;;;;5066507;28;20197;-69
2022/04/16 07:48:28;;;;;;;3.90;2.00;;;20.40;99.90;;;;;;5066471;28;20227;-75
2022/04/16 07:50:59;;;;;;;2.65;1.67;;;20.40;99.90;;;;;;5069371;28;20196;-71
2022/04/16 07:53:29;;;;;;;3.30;1.70;;;20.30;99.90;;;;;;5071707;28;20224;-69
2022/04/16 07:56:00;;;;;;;3.50;1.85;;;20.20;99.90;;;;;;5071257;28;20581;-70
2022/04/16 07:58:33;;;;;;;4.97;2.00;;;20.10;99.90;;;;;;5072925;28;20193;-69
2022/04/16 08:01:03;;;;;;;5.25;2.05;;;20.00;99.90;;;;;;5074149;28;20193;-69
2022/04/16 08:03:34;;;;;;;4.47;2.20;;;19.90;99.90;;;;;;5067142;28;20189;-70
2022/04/16 08:06:04;;;;;;;6.00;2.40;;;19.90;99.90;;;;;;5074712;28;20247;-69
2022/04/16 08:08:35;;;;;;;9.43;3.88;;;19.90;99.90;;;;;;5071887;28;20203;-69
2022/04/16 08:11:06;;;;;;;9.90;4.40;;;19.90;99.90;;;;;;5075441;28;20189;-69
2022/04/16 08:13:38;;;;;;;10.80;6.78;;;19.80;99.90;;;;;;5071633;28;20189;-69
2022/04/16 08:16:09;;;;;;;10.38;5.82;;;19.80;99.90;;;;;;5072586;28;20200;-69
2022/04/16 08:18:40;;;;;;;9.40;4.47;;;19.80;99.90;;;;;;5068016;28;20189;-69
2022/04/16 08:21:10;;;;;;;8.60;3.92;;;19.70;99.90;;;;;;5074340;28;20193;-70
2022/04/16 08:23:54;;;;;;;5.80;3.38;;;19.70;99.90;;;;;;5067424;28;20698;-68
2022/04/16 08:26:25;;;;;;;9.73;3.67;;;19.70;99.90;;;;;;5073278;28;20200;-69
2022/04/16 08:28:57;;;;;;;8.30;3.60;;;19.60;99.90;;;;;;5074167;28;20648;-69
2022/04/16 08:31:28;;;;;;;7.50;3.90;;;19.60;99.90;;;;;;5073718;28;20656;-69
2022/04/16 08:33:59;;;;;;;6.97;3.55;;;19.60;99.90;;;;;;5073061;28;20192;-69
2022/04/16 08:36:30;;;;;;;6.35;4.03;;;19.60;99.90;;;;;;5072700;28;20193;-69
2022/04/16 08:39:01;;;;;;;8.38;4.88;;;19.60;99.90;;;;;;5072102;28;20198;-69
2022/04/16 08:41:33;;;;;;;7.78;4.85;;;19.60;99.90;;;;;;5071384;28;20197;-69
2022/04/16 08:44:05;;;;;;;9.18;4.28;;;19.50;99.90;;;;;;5073633;28;20205;-69
2022/04/16 08:46:36;;;;;;;9.23;4.43;;;19.50;99.90;;;;;;5069219;28;20222;-69
2022/04/16 08:49:07;;;;;;;8.32;4.38;;;19.50;99.90;;;;;;5071158;28;20199;-70
2022/04/16 08:51:38;;;;;;;9.75;4.32;;;19.50;99.90;;;;;;5073589;28;20262;-69
2022/04/16 08:54:08;;;;;;;8.07;4.10;;;19.50;99.90;;;;;;5072125;28;20282;-69
2022/04/16 08:56:40;;;;;;;7.38;4.30;;;19.40;99.90;;;;;;5071507;28;20262;-69
2022/04/16 08:59:12;;;;;;;5.95;4.03;;;19.30;99.90;;;;;;5068404;28;20566;-70
2022/04/16 09:01:43;;;;;;;10.10;4.10;;;19.30;99.90;;;;;;5072009;28;20200;-69
2022/04/16 09:04:23;;;;;;;8.38;3.70;;;19.30;99.90;;;;;;5072585;28;20262;-69
2022/04/16 09:07:01;;;;;;;5.68;3.65;;;19.20;99.90;;;;;;5072318;28;20726;-69
2022/04/16 09:09:31;;;;;;;8.35;4.20;;;19.20;99.90;;;;;;5072702;28;20235;-69
2022/04/16 09:12:02;;;;;;;7.65;3.90;;;19.10;99.90;;;;;;5070492;28;20193;-70
2022/04/16 09:14:44;;;;;;;8.70;4.03;;;19.10;99.90;;;;;;5072648;28;20679;-69
2022/04/16 09:17:18;;;;;;;7.88;4.65;;;19.00;99.90;;;;;;5071859;28;20274;-70
2022/04/16 09:19:57;;;;;;;8.13;5.22;;;19.00;99.90;;;;;;5073057;28;20200;-69
2022/04/16 09:22:35;;;;;;;8.15;4.80;;;19.00;99.90;;;;;;5072789;28;20204;-70
2022/04/16 09:25:06;;;;;;;7.57;4.80;;;19.00;99.90;;;;;;5069675;28;20204;-69
2022/04/16 09:27:45;;;;;;;7.97;4.85;;;19.00;99.90;;;;;;5066114;28;20254;-69
2022/04/16 09:30:25;;;;;;;11.48;4.03;;;19.00;99.90;;;;;;5071852;28;20217;-69
2022/04/16 09:32:59;;;;;;;9.05;4.57;;;19.00;99.90;;;;;;5066880;28;20681;-69
2022/04/16 09:35:31;;;;;;;8.13;4.20;;;19.00;99.90;;;;;;5073491;28;20217;-69
2022/04/16 09:38:03;;;;;;;7.85;4.10;;;18.90;99.90;;;;;;5071875;28;20652;-69
2022/04/16 09:40:35;;;;;;;6.40;4.22;;;18.90;99.90;;;;;;5073087;28;20185;-69
2022/04/16 09:43:07;;;;;;;7.18;3.90;;;18.90;99.90;;;;;;5071696;28;20203;-69
2022/04/16 09:45:42;;;;;;;8.13;4.53;;;18.90;99.90;;;;;;5072392;28;20205;-69
2022/04/16 09:48:14;;;;;;;6.88;4.45;;;18.90;99.90;;;;;;5071928;28;20211;-69
2022/04/16 09:50:45;;;;;;;8.85;5.25;;;18.90;99.90;;;;;;5072188;28;20216;-70
2022/04/16 09:53:17;;;;;;;11.75;4.93;;;18.80;99.90;;;;;;5072431;28;20228;-69
2022/04/16 09:55:48;;;;;;;9.15;5.43;;;18.80;99.90;;;;;;5072410;28;20220;-70
2022/04/16 09:58:28;;;;;;;7.93;5.10;;;18.80;99.90;;;;;;5066771;28;20239;-69
2022/04/16 10:01:00;;;;;;;9.18;5.30;;;18.80;99.90;;;;;;5071991;28;20204;-69
2022/04/16 10:03:32;;;;;;;13.43;5.15;;;18.80;99.90;;;;;;5071356;28;20193;-69
2022/04/16 10:06:03;;;;;;;9.57;4.55;;;18.70;99.90;;;;;;5070849;28;20193;-69
2022/04/16 10:08:34;;;;;;;9.40;4.72;;;18.70;99.90;;;;;;5072451;28;20201;-69
2022/04/16 10:11:06;;;;;;;8.20;4.47;;;18.70;99.90;;;;;;5072521;28;20243;-69
2022/04/16 10:13:44;;;;;;;8.40;4.70;;;18.70;99.90;;;;;;5072038;28;20197;-69
2022/04/16 10:16:22;;;;;;;9.57;4.93;;;18.70;99.90;;;;;;5070333;28;20216;-69
2022/04/16 10:18:52;;;;;;;9.23;4.53;;;18.70;99.90;;;;;;5067443;28;20189;-70
2022/04/16 10:21:23;;;;;;;9.13;4.22;;;18.60;99.90;;;;;;5070357;28;20200;-75
2022/04/16 10:24:04;;;;;;;7.43;4.78;;;18.60;99.90;;;;;;5070842;28;20193;-70
2022/04/16 10:26:43;;;;;;;8.52;4.60;;;18.60;99.90;;;;;;5071414;28;20266;-69
2022/04/16 10:29:14;;;;;;;8.52;4.88;;;18.60;99.90;;;;;;5066844;28;20664;-70
2022/04/16 10:31:52;;;;;;;9.55;4.82;;;18.60;99.90;;;;;;5071955;28;20204;-71
2022/04/16 10:34:32;;;;;;;10.63;4.95;;;18.60;99.90;;;;;;5069524;28;20197;-70
2022/04/16 10:37:03;;;;;;;8.85;4.50;;;18.50;99.90;;;;;;5071800;28;20201;-70
2022/04/16 10:39:38;;;;;;;9.00;4.75;;;18.50;99.90;;;;;;5070051;28;20558;-69
2022/04/16 10:42:09;;;;;;;8.38;4.65;;;18.50;99.90;;;;;;5070927;28;20196;-69
2022/04/16 10:44:47;;;;;;;6.80;4.60;;;18.50;99.90;;;;;;5072554;28;20200;-70
2022/04/16 10:47:20;;;;;;;7.70;4.97;;;18.40;99.90;;;;;;5070827;28;20221;-69
2022/04/16 10:49:51;;;;;;;10.52;4.60;;;18.40;99.90;;;;;;5071290;28;20254;-70
2022/04/16 10:52:25;;;;;;;9.75;4.90;;;18.40;99.90;;;;;;5071506;28;20201;-69
2022/04/16 10:55:06;;;;;;;8.68;5.18;;;18.30;99.90;;;;;;5071332;28;20302;-69
2022/04/16 10:57:37;;;;;;;11.30;4.60;;;18.30;99.90;;;;;;5071611;28;20280;-69
2022/04/16 11:00:18;;;;;;;7.78;4.82;;;18.20;99.90;;;;;;5067131;28;20193;-69
2022/04/16 11:02:51;;;;;;;7.18;4.72;;;18.20;99.90;;;;;;5070372;28;20656;-69
2022/04/16 11:05:22;;;;;;;8.57;4.43;;;18.10;99.90;;;;;;5071284;28;20204;-70
2022/04/16 11:07:52;;;;;;;10.82;5.32;;;18.10;99.90;;;;;;5072358;28;20200;-69
2022/04/16 11:10:25;;;;;;;11.75;5.60;;;18.10;99.90;;;;;;5070449;28;20600;-69
2022/04/16 11:12:57;;;;;;;10.93;5.40;;;18.00;99.90;;;;;;5072755;28;20235;-69
2022/04/16 11:15:27;;;;;;;11.35;6.72;;;18.00;99.90;;;;;;5064990;28;20295;-70
2022/04/16 11:18:01;;;;;;;15.35;7.43;;;18.00;99.90;;;;;;5067631;28;20571;-70
2022/04/16 11:20:32;;;;;;;12.00;7.15;;;18.00;99.90;;;;;;5066787;28;20192;-69
2022/04/16 11:23:02;;;;;;;11.75;6.93;;;18.00;99.90;;;;;;5067600;28;20652;-69
2022/04/16 11:34:14;;;;;;;11.38;7.20;;;18.00;99.90;;;;;;5063885;28;20193;-70
2022/04/16 11:34:20;;;;;;;11.90;7.18;;;17.90;99.90;;;;;;5074193;28;20219;-69
2022/04/16 11:36:53;;;;;;;13.90;7.50;;;17.90;99.90;;;;;;5075840;28;20215;-69
2022/04/16 11:39:25;;;;;;;10.82;7.18;;;17.90;99.90;;;;;;5074777;28;20197;-70
2022/04/16 11:41:56;;;;;;;12.65;7.15;;;17.90;99.90;;;;;;5075062;28;20196;-69
2022/04/16 11:44:41;;;;;;;15.38;7.53;;;17.90;99.90;;;;;;5076012;28;20189;-69
2022/04/16 11:47:15;;;;;;;11.10;7.20;;;17.90;99.90;;;;;;5067641;28;20699;-69
2022/04/16 11:49:48;;;;;;;12.80;7.50;;;17.80;99.90;;;;;;5074394;28;20204;-69
2022/04/16 11:52:24;;;;;;;13.68;7.93;;;17.80;99.90;;;;;;5075906;28;20189;-69
2022/04/16 11:55:04;;;;;;;12.25;7.30;;;17.80;99.90;;;;;;5072914;28;20231;-69
2022/04/16 11:57:35;;;;;;;12.27;8.20;;;17.80;99.90;;;;;;5070069;28;20590;-69
2022/04/16 12:00:08;;;;;;;12.40;7.15;;;17.80;99.90;;;;;;5075454;28;20196;-69
2022/04/16 12:02:39;;;;;;;9.25;6.65;;;17.80;99.90;;;;;;5075695;28;20200;-69
2022/04/16 12:05:19;;;;;;;11.23;6.82;;;17.80;99.90;;;;;;5074070;28;20251;-69
2022/04/16 12:07:51;;;;;;;12.43;6.47;;;17.70;99.90;;;;;;5074527;28;20195;-69
2022/04/16 12:10:21;;;;;;;11.57;6.15;;;17.70;99.90;;;;;;5073930;28;20193;-68
2022/04/16 12:12:53;;;;;;;11.20;7.25;;;17.80;99.90;;;;;;5075489;28;20544;-69
2022/04/16 12:15:25;;;;;;;11.77;6.82;;;17.80;99.90;;;;;;5068266;28;20217;-70
2022/04/16 12:17:56;;;;;;;12.10;6.78;;;17.80;99.90;;;;;;5075510;28;20710;-69
2022/04/16 12:20:29;;;;;;;10.88;6.65;;;17.70;99.90;;;;;;5075347;28;20189;-69
2022/04/16 12:23:02;;;;;;;12.07;6.85;;;17.80;99.90;;;;;;5073520;28;20205;-70
2022/04/16 12:25:34;;;;;;;11.38;7.00;;;17.70;99.90;;;;;;5067249;28;20205;-69
2022/04/16 12:28:05;;;;;;;13.15;6.93;;;17.80;99.90;;;;;;5075269;28;20292;-69
2022/04/16 12:30:37;;;;;;;11.00;7.00;;;17.80;99.90;;;;;;5073288;28;20197;-69
2022/04/16 12:33:10;;;;;;;10.60;6.82;;;17.80;99.90;;;;;;5074049;28;20223;-69
2022/04/16 12:35:45;;;;;;;12.43;7.05;;;17.80;99.90;;;;;;5073858;28;20299;-69
2022/04/16 12:38:17;;;;;;;12.80;7.50;;;17.80;99.90;;;;;;5067696;28;20259;-69
2022/04/16 12:40:48;;;;;;;11.10;6.85;;;17.80;99.90;;;;;;5073198;28;20193;-70
2022/04/16 12:43:19;;;;;;;11.15;6.88;;;17.80;99.90;;;;;;5074370;28;20699;-69
2022/04/16 12:45:50;;;;;;;12.00;7.38;;;17.80;99.90;;;;;;5073893;28;20200;-69
2022/04/16 12:48:20;;;;;;;15.60;7.75;;;17.70;99.90;;;;;;5072926;28;20217;-69
2022/04/16 12:50:53;;;;;;;10.27;6.82;;;17.60;99.90;;;;;;5073244;28;20272;-70
2022/04/16 12:53:24;;;;;;;9.80;6.85;;;17.70;99.90;;;;;;5069941;28;20227;-69
2022/04/16 12:55:55;;;;;;;10.18;6.93;;;17.70;99.90;;;;;;5072212;28;20758;-71
2022/04/16 12:58:26;;;;;;;13.95;7.25;;;17.60;99.90;;;;;;5071136;28;20250;-70
2022/04/16 13:00:56;;;;;;;11.88;7.40;;;17.60;99.90;;;;;;5072268;28;20706;-69
2022/04/16 13:03:27;;;;;;;11.38;7.05;;;17.60;99.90;;;;;;5071197;28;20255;-69
2022/04/16 13:05:59;;;;;;;10.77;6.97;;;17.60;99.90;;;;;;5071596;28;20201;-69
2022/04/16 13:08:31;;;;;;;10.05;6.60;;;17.60;99.90;;;;;;5070046;28;20572;-69
2022/04/16 13:11:05;;;;;;;12.00;7.40;;;17.60;99.90;;;;;;5070905;28;20193;-69
2022/04/16 13:13:36;;;;;;;8.98;6.70;;;17.60;99.90;;;;;;5068313;28;20185;-70
2022/04/16 13:16:07;;;;;;;11.07;7.45;;;17.60;99.90;;;;;;5071390;28;20300;-70
2022/04/16 13:18:38;;;;;;;11.52;7.32;;;17.60;99.90;;;;;;5068896;28;20181;-69
2022/04/16 13:21:10;;;;;;;10.73;6.70;;;17.60;99.90;;;;;;5070430;28;20568;-69
2022/04/16 13:23:41;;;;;;;11.60;7.35;;;17.60;99.90;;;;;;5065001;28;20193;-69